createdAt,value
2019-04-05T00:02:28.023Z,99.90
2019-04-05T00:05:05.540Z,93.50
2019-04-05T00:07:43.363Z,99.90
2019-04-05T00:10:21.484Z,99.90
2019-04-05T00:12:59.253Z,99.90
2019-04-05T00:15:38.090Z,94.30
2019-04-05T00:20:50.703Z,93.30
2019-04-05T00:23:28.327Z,99.90
2019-04-05T00:26:05.852Z,93.30
2019-04-05T00:28:43.376Z,92.30
2019-04-05T00:31:21.228Z,92.50
2019-04-05T00:33:58.961Z,99.90
2019-04-05T00:36:36.806Z,99.70
2019-04-05T00:39:15.963Z,97.90
2019-04-05T00:41:53.651Z,93.00
2019-04-05T00:44:31.386Z,99.90
2019-04-05T00:47:08.948Z,92.30
2019-04-05T00:49:46.591Z,92.20
2019-04-05T00:52:24.262Z,91.70
2019-04-05T00:55:01.975Z,91.90
2019-04-05T00:57:39.550Z,91.80
2019-04-05T01:00:18.287Z,99.90
2019-04-05T01:02:56.095Z,91.70
2019-04-05T01:05:33.851Z,99.90
2019-04-05T01:08:11.616Z,92.30
2019-04-05T01:10:49.335Z,99.90
2019-04-05T01:13:26.932Z,92.10
2019-04-05T01:16:04.612Z,92.30
2019-04-05T01:18:42.207Z,99.90
2019-04-05T01:21:22.586Z,99.90
2019-04-05T01:24:07.394Z,92.00
2019-04-05T01:26:49.919Z,91.70
2019-04-05T01:29:28.114Z,99.70
2019-04-05T01:32:05.936Z,92.30
2019-04-05T01:34:43.725Z,97.80
2019-04-05T01:37:21.336Z,97.40
2019-04-05T01:39:59.025Z,97.50
2019-04-05T01:42:37.051Z,98.00
2019-04-05T01:45:15.421Z,97.40
2019-04-05T01:47:53.080Z,90.10
2019-04-05T01:50:30.843Z,90.30
2019-04-05T01:53:08.933Z,96.60
2019-04-05T01:55:47.960Z,97.10
2019-04-05T01:58:25.659Z,95.80
2019-04-05T02:01:03.342Z,96.20
2019-04-05T02:06:16.280Z,95.80
2019-04-05T02:08:54.212Z,95.40
2019-04-05T02:11:32.074Z,95.50
2019-04-05T02:24:31.319Z,92.00
2019-04-05T02:27:09.204Z,89.20
2019-04-05T02:29:49.775Z,88.40
2019-04-05T02:32:27.643Z,88.10
2019-04-05T02:35:05.357Z,87.30
2019-04-05T02:40:19.468Z,94.60
2019-04-05T02:42:59.353Z,95.20
2019-04-05T02:48:15.594Z,94.30
2019-04-05T02:50:55.429Z,94.70
2019-04-05T02:53:35.270Z,85.10
2019-04-05T02:56:14.004Z,85.30
2019-04-05T02:58:52.410Z,85.60
2019-04-05T03:01:30.631Z,85.90
2019-04-05T03:04:08.924Z,85.10
2019-04-05T03:06:47.180Z,85.80
2019-04-05T03:09:25.032Z,86.10
2019-04-05T03:12:03.922Z,86.60
2019-04-05T03:14:42.741Z,87.20
2019-04-05T03:17:20.788Z,87.60
2019-04-05T03:20:00.297Z,86.40
2019-04-05T03:22:42.679Z,86.50
2019-04-05T03:25:20.391Z,86.60
2019-04-05T03:27:58.212Z,87.10
2019-04-05T03:33:11.981Z,94.00
2019-04-05T03:38:25.530Z,93.50
2019-04-05T03:41:03.475Z,94.50
2019-04-05T03:43:41.347Z,94.50
2019-04-05T03:46:19.390Z,95.10
2019-04-05T03:48:57.396Z,86.00
2019-04-05T03:51:35.864Z,85.70
2019-04-05T03:54:15.141Z,86.10
2019-04-05T03:56:52.790Z,86.80
2019-04-05T03:59:30.460Z,95.80
2019-04-05T04:02:08.223Z,84.90
2019-04-05T04:04:46.091Z,85.90
2019-04-05T04:07:23.946Z,85.50
2019-04-05T04:10:01.775Z,79.40
2019-04-05T04:12:39.639Z,77.80
2019-04-05T04:15:20.629Z,77.80
2019-04-05T04:20:52.844Z,89.90
2019-04-05T04:23:33.074Z,90.80
2019-04-05T04:31:22.051Z,91.20
2019-04-05T04:36:35.179Z,92.10
2019-04-05T04:41:48.602Z,92.30
2019-04-05T04:44:26.474Z,92.10
2019-04-05T18:06:30.415Z,99.90
2019-04-05T18:11:43.454Z,99.90
2019-04-05T18:14:21.305Z,99.90
2019-04-05T18:19:34.013Z,99.90
2019-04-05T18:22:11.641Z,99.90
2019-04-05T18:24:49.338Z,99.90
2019-04-05T18:30:01.911Z,99.90
2019-04-05T18:32:39.618Z,99.90
2019-04-05T18:35:17.588Z,99.90
2019-04-05T18:37:55.157Z,99.90
2019-04-05T18:40:39.895Z,99.90
2019-04-05T18:43:12.395Z,99.90
2019-04-05T18:45:50.032Z,99.90
2019-04-05T18:51:02.989Z,99.90
2019-04-05T18:53:40.889Z,99.90
2019-04-05T18:56:18.455Z,99.90
2019-04-05T18:58:56.061Z,99.90
2019-04-05T19:01:33.989Z,99.90
2019-04-05T19:04:11.698Z,99.90
2019-04-05T19:09:24.405Z,99.90
2019-04-05T19:12:04.023Z,99.90
2019-04-05T19:17:23.709Z,99.90
2019-04-05T19:19:55.510Z,99.90
2019-04-05T19:22:33.185Z,99.90
2019-04-05T19:25:11.215Z,99.90
2019-04-05T19:48:53.063Z,99.90
2019-04-05T19:51:30.779Z,99.90
2019-04-05T19:54:08.917Z,99.90
2019-04-05T19:56:46.662Z,99.90
2019-04-05T19:59:24.315Z,99.90
2019-04-05T20:02:02.041Z,99.90
2019-04-05T20:04:39.880Z,99.90
2019-04-05T20:07:17.656Z,99.90
2019-04-05T20:09:55.539Z,99.90
2019-04-05T20:12:33.324Z,99.90
2019-04-05T20:20:21.814Z,99.90
2019-04-05T20:22:59.540Z,99.90
2019-04-05T20:25:37.330Z,99.90
2019-04-05T20:33:25.168Z,99.90
2019-04-05T20:36:04.755Z,99.90
2019-04-05T20:38:42.461Z,99.90
2019-04-05T20:41:20.087Z,99.90
2019-04-05T20:43:58.308Z,99.90
2019-04-05T20:46:36.841Z,99.90
2019-04-05T20:49:14.527Z,96.00
2019-04-05T20:51:52.179Z,99.90
2019-04-05T20:54:30.062Z,99.90
2019-04-05T20:57:07.586Z,99.90
2019-04-05T20:59:45.374Z,99.90
2019-04-05T21:02:23.127Z,99.90
2019-04-05T21:05:00.935Z,99.90
2019-04-05T21:07:38.568Z,99.90
2019-04-05T21:12:52.223Z,99.90
2019-04-05T21:15:29.971Z,99.90
2019-04-05T21:18:07.884Z,99.90
2019-04-05T21:23:20.849Z,99.90
2019-04-05T21:28:33.727Z,99.90
2019-04-05T21:31:11.533Z,99.90
2019-04-05T21:33:49.175Z,99.90
2019-04-05T21:36:27.539Z,99.90
2019-04-05T21:39:05.419Z,99.90
2019-04-05T21:41:43.119Z,99.90
2019-04-05T21:44:20.739Z,99.90
2019-04-05T21:46:58.607Z,99.90
2019-04-05T21:49:36.234Z,99.90
2019-04-05T21:52:14.440Z,99.90
2019-04-05T21:54:52.099Z,99.90
2019-04-05T21:57:29.687Z,99.90
2019-04-05T22:00:07.328Z,99.90
2019-04-05T22:02:45.282Z,94.60
2019-04-05T22:05:22.815Z,94.40
2019-04-05T22:08:00.339Z,94.30
2019-04-05T22:10:37.978Z,94.20
2019-04-05T22:13:15.663Z,99.90
2019-04-05T22:15:53.208Z,99.90
2019-04-05T22:18:30.754Z,94.00
2019-04-05T22:21:08.485Z,93.70
2019-04-05T22:23:46.989Z,93.40
2019-04-05T22:26:24.748Z,93.20
2019-04-05T22:29:03.909Z,92.50
2019-04-05T22:31:41.486Z,92.90
2019-04-05T22:34:19.220Z,99.90
2019-04-05T22:36:56.791Z,99.20
2019-04-05T22:39:34.502Z,99.00
2019-04-05T22:47:22.650Z,97.70
2019-04-05T22:55:11.997Z,90.80
2019-04-05T23:05:35.059Z,97.40
2019-04-05T23:13:28.965Z,98.50
2019-04-05T23:16:07.989Z,90.20
2019-04-05T23:21:20.663Z,89.60
2019-04-05T23:23:58.210Z,97.70
2019-04-05T23:26:35.839Z,90.00
2019-04-05T23:29:13.462Z,96.00
2019-04-05T23:31:51.073Z,96.00
2019-04-05T23:34:28.622Z,96.70
2019-04-05T23:37:06.284Z,97.00
2019-04-05T23:39:43.865Z,96.30
2019-04-05T23:42:21.427Z,94.70
2019-04-05T23:44:58.981Z,88.00
2019-04-05T23:47:37.016Z,87.30
2019-04-05T23:50:14.640Z,87.50
2019-04-05T23:52:52.238Z,87.40
2019-04-05T23:55:33.492Z,87.10
2019-04-05T23:58:08.523Z,86.80
